Tiempo atmosférico en la estación meteorológica de Sevilla, Tablada, Sevilla (9 m.)



Fecha
DESCASC
Temp. máxima en grados centígrados (hora)
DESCASC
Temp. mínima en grados centígrados (hora)
DESCASC
Temp. media en grados centígrados
DESCASC
Racha de viento máxima en m/sg (hora)
DESCASC
Velocidad máxima media en intervalos de 10 minutos(hora)
DESCASC
Precipitaciones diarias en mm
DESCASC
Precipitaciones de 00:00 a 06:00 en mm
DESCASC
Precipitaciones de 06:00 a 12:00 en mm
DESCASC
Precipitaciones de 12:00 a 18:00 en mm
DESCASC
Precipitaciones de 18:00 a 24:00 en mm
DESCASC
22-08-2019 36.8 (17:10) 23.6 (05:50) 30.2 10.83 (13:00) 5.83 (15:50) 0 0 0 0 0
21-08-2019 36 (16:40) 18.4 (07:50) 27.2 7.5 (19:20) 4.17 (19:20) 0 0 0 0 0
20-08-2019 34.4 (17:10) 17.3 (07:50) 25.9 5.83 (18:40) 3.33 (18:30) 0 0 0 0 0
19-08-2019 34.4 (19:00) 19.3 (07:10) 26.9 10 (16:20) 5.83 (17:10) 0 0 0 0 0
18-08-2019 34.6 (17:20) 20.3 (00:00) 27.4 8.89 (17:40) 5.83 (18:20) 0 0 0 0 0
17-08-2019 39.9 (16:40) 20.2 (00:00) 30.1 7.78 (19:50) 3.61 (19:40) 0 0 0 0 0
16-08-2019 38.3 (17:30) 20.6 (00:00) 29.4 8.61 (18:10) 4.72 (16:40) 0 0 0 0 0
15-08-2019 39.1 (16:30) 20.9 (00:00) 30 7.5 (19:00) 3.89 (18:40) 0 0 0 0 0
14-08-2019 38.5 (17:40) 18.6 (00:00) 28.6 6.11 (21:40) 3.06 (23:20) 0 0 0 0 0
13-08-2019 37.3 (17:50) 16.7 (00:00) 27 6.67 (20:10) 3.61 (19:10) 0 0 0 0 0
12-08-2019 35.2 (18:20) 20.2 (00:00) 27.7 8.33 (03:20) 4.17 (03:30) 0 0 0 0 0
11-08-2019 34.3 (15:00) 19.4 (00:00) 26.8 8.61 (21:30) 4.17 (21:20) 0 0 0 0 0
10-08-2019 35.3 (15:40) 20.8 (00:00) 28 8.89 (18:20) 5 (18:30) 0 0 0 0 0
09-08-2019 33.6 (15:50) 19.4 (00:00) 26.5 10.56 (18:00) 6.39 (18:00) 0 0 0 0 0
08-08-2019 36.4 (15:00) 19.2 (00:00) 27.8 9.72 (18:40) 5.83 (18:40) 0 0 0 0 0
07-08-2019 33.3 (17:30) 19.2 (00:00) 26.3 6.67 (19:20) 3.89 (19:20) 0 0 0 0 0
06-08-2019 36.3 (17:10) 17.8 (00:00) 27 8.61 (19:00) 5.28 (19:00) 0 0 0 0 0
05-08-2019 37.1 (16:20) 18.9 (00:00) 28 9.17 (18:40) 5.83 (18:00) 0 0 0 0 0
04-08-2019 35.9 (16:40) 18.3 (00:00) 27.1 8.33 (18:30) 4.44 (18:00) 0 0 0 0 0
03-08-2019 34.3 (17:10) 18.1 (00:00) 26.2 7.78 (15:10) 5 (17:50) 0 0 0 0 0
02-08-2019 36.9 (16:20) 18.6 (00:00) 27.8 9.44 (18:00) 5.56 (18:20) 0 0 0 0 0
01-08-2019 37.2 (15:40) 21.4 (00:00) 29.3 8.89 (19:50) 4.17 (17:10) 0 0 0 0 0
31-07-2019 36.6 (17:30) 19.6 (00:00) 28.1 7.5 (20:40) 3.89 (18:40) 0 0 0 0 0
30-07-2019 37.6 (17:20) 21.1 (00:00) 29.3 6.11 (04:50) 3.06 (04:50) 0 0 0 0 0
29-07-2019 34.4 (16:50) 18.9 (00:00) 26.7 9.44 (18:20) 5.83 (18:40) 0 0 0 0 0
28-07-2019 32.3 (16:50) 18.1 (00:00) 25.2 8.61 (18:40) 4.72 (18:30) 0 0 0 0 0
27-07-2019 29.1 (16:30) 18.9 (00:00) 24 10 (18:40) 4.72 (17:10) 0 0 0 0 0
26-07-2019 34.5 (17:00) 20.4 (00:00) 27.4 10.56 (19:30) 5.56 (20:10) 0 0 0 0 0

Gráficas

Temp. máximas Temp. mínimas Temp. medias Precipitaciones Rachas de viento máximas Velocidades máximas media en intervalos de 10 minutos

Datos horarios

Fecha y hora oficial Temperatura (ºC) Velocidad del viento (km/h) Dirección del viento Racha (km/h) Dirección de racha Precipitación (mm) Presión (hPa) Tendencia (hPa) Humedad (%)
2019-08-24 23:00:00 27.7 7 Sudoeste 19 Sudoeste 0 -- -- 46
2019-08-24 22:00:00 29.4 9 Sudoeste 25 Sudoeste 0 -- -- 41
2019-08-24 21:00:00 32.2 13 Sudoeste 27 Oeste 0 -- -- 34
2019-08-24 20:00:00 33.9 10 Sudoeste 22 Sudoeste 0 -- -- 30
2019-08-24 19:00:00 35.9 14 Sur 24 Sudoeste 0 -- -- 26
2019-08-24 18:00:00 38 7 Oeste 17 Sudoeste 0 -- -- 23
2019-08-24 17:00:00 38.5 5 Noroeste 18 Sur 0 -- -- 23
2019-08-24 16:00:00 37.8 4 Norte 16 Sudeste 0 -- -- 23
2019-08-24 15:00:00 36.5 8 Sudeste 16 Este 0 -- -- 22
2019-08-24 14:00:00 35.9 6 Oeste 16 Norte 0 -- -- 26
2019-08-24 13:00:00 34.7 5 Nordeste 15 Norte 0 -- -- 28
2019-08-24 12:00:00 32.4 5 Nordeste 14 Norte 0 -- -- 34
2019-08-24 11:00:00 29.9 5 Nordeste 15 Nordeste 0 -- -- 38
2019-08-24 10:00:00 26.7 6 Nordeste 15 Nordeste 0 -- -- 45
2019-08-24 09:00:00 23.6 6 Norte 10 Norte 0 -- -- 65
2019-08-24 08:00:00 22.3 0 Calma 10 Norte 0 -- -- 72
2019-08-24 07:00:00 22.8 5 Norte 11 Norte 0 -- -- 70
2019-08-24 06:00:00 22.5 0 Calma 6 Norte 0 -- -- 72
2019-08-24 05:00:00 23 4 Noroeste 8 Norte 0 -- -- 71
2019-08-24 04:00:00 23.7 0 Calma 7 Oeste 0 -- -- 67
2019-08-24 03:00:00 24.8 2 Oeste 16 Oeste 0 -- -- 63
2019-08-24 02:00:00 25.5 6 Oeste 18 Oeste 0 -- -- 60
2019-08-24 01:00:00 26.3 7 Oeste 25 Oeste 0 -- -- 58
2019-08-24 00:00:00 27.6 8 Oeste 17 Sudoeste 0 -- -- 52
2019-08-23 23:00:00 29.1 9 Sudoeste 15 Sudoeste 0 -- -- 46
2019-08-23 22:00:00 30.8 6 Sur 19 Oeste 0 -- -- 43
2019-08-23 21:00:00 33 7 Sur 15 Sudoeste 0 -- -- 35
2019-08-23 20:00:00 35.4 6 Este 19 Sudoeste 0 -- -- 28
2019-08-23 19:00:00 37.1 8 Sudeste 25 Sur 0 -- -- 27
2019-08-23 18:00:00 37.6 5 Sur 18 Sudoeste 0 -- -- 24
2019-08-23 17:00:00 37.7 8 Sur 22 Sur 0 -- -- 25
2019-08-23 16:00:00 37.4 10 Sur 23 Nordeste 0 -- -- 27
2019-08-23 15:00:00 37.3 10 Sudeste 23 Este 0 -- -- 23
2019-08-23 14:00:00 36.8 8 Nordeste 21 Nordeste 0 -- -- 25
2019-08-23 13:00:00 34.8 12 Sudeste 21 Nordeste 0 -- -- 28
2019-08-23 12:00:00 33.2 11 Este 25 Sudeste 0 -- -- 32
2019-08-23 11:00:00 31.5 10 Este 21 Este 0 -- -- 35
2019-08-23 10:00:00 27.6 6 Norte 12 Norte 0 -- -- 53
2019-08-23 09:00:00 24.3 7 Norte 12 Norte 0 -- -- 62
2019-08-23 08:00:00 23 3 Nordeste 8 Nordeste 0 -- -- 62
2019-08-23 07:00:00 23.4 3 Nordeste 9 Este 0 -- -- 61
2019-08-23 06:00:00 23.8 2 Norte 10 Norte 0 -- -- 66
2019-08-23 05:00:00 24.4 4 Norte 13 Norte 0 -- -- 61
2019-08-23 04:00:00 25.3 7 Norte 13 Noroeste 0 -- -- 56
2019-08-23 03:00:00 25.7 4 Norte 9 Norte 0 -- -- 57
2019-08-23 02:00:00 26.5 3 Noroeste 14 Noroeste 0 -- -- 54
2019-08-23 01:00:00 27 3 Noroeste 9 Noroeste 0 -- -- 53
2019-08-23 00:00:00 27.8 5 Oeste 12 Sudoeste 0 -- -- 51
2019-08-22 23:00:00 28.9 4 Sudoeste 15 Sudoeste 0 -- -- 48
2019-08-22 22:00:00 30 6 Sudoeste 15 Oeste 0 -- -- 46
2019-08-22 21:00:00 32.1 10 Sur 25 Sur 0 -- -- 44
2019-08-22 20:00:00 34.5 12 Sur 26 Este 0 -- -- 38
2019-08-22 19:00:00 36.2 10 Este 28 Este 0 -- -- 31
2019-08-22 18:00:00 36.6 12 Este 28 Nordeste 0 -- -- 32
2019-08-22 17:00:00 36.6 13 Este 33 Sudeste 0 -- -- 32
2019-08-22 16:00:00 35.9 19 Sudeste 37 Este 0 -- -- 32
2019-08-22 15:00:00 35.8 14 Este 34 Este 0 -- -- 38
2019-08-22 14:00:00 34.4 16 Este 36 Este 0 -- -- 42
2019-08-22 13:00:00 33.4 17 Este 39 Este 0 -- -- 45
2019-08-22 12:00:00 32.5 13 Este 33 Este 0 -- -- 45
2019-08-22 11:00:00 30.5 10 Este 18 Nordeste 0 -- -- 51
2019-08-22 10:00:00 28.1 6 Nordeste 17 Nordeste 0 -- -- 58
2019-08-22 09:00:00 25.6 4 Norte 9 Nordeste 0 -- -- 69
2019-08-22 08:00:00 24.2 4 Nordeste 10 Este 0 -- -- 72
2019-08-22 07:00:00 24.2 4 Norte 14 Norte 0 -- -- 71
2019-08-22 06:00:00 23.6 3 Norte 8 Norte 0 -- -- 74
2019-08-22 05:00:00 24.2 0 Calma -- -- 0 -- -- 72
2019-08-22 04:00:00 24.8 0 Calma 8 Sudoeste 0 -- -- 69
2019-08-22 03:00:00 25.5 5 Sudoeste 17 Sudoeste 0 -- -- 67
2019-08-22 02:00:00 26.2 6 Oeste 16 Noroeste 0 -- -- 65
2019-08-22 01:00:00 26.8 4 Oeste 20 Oeste 0 -- -- 63
2019-08-22 00:00:00 27.6 4 Oeste 15 Oeste 0 -- -- 59
2019-08-21 23:00:00 28.5 6 Sudoeste 23 Oeste 0 -- -- 55
2019-08-21 22:00:00 29.5 8 Oeste 26 Oeste 0 -- -- 51
2019-08-21 21:00:00 31 12 Oeste 24 Sudoeste 0 -- -- 46
2019-08-21 20:00:00 32.6 13 Sudoeste 27 Sudoeste 0 -- -- 42
2019-08-21 19:00:00 35.3 10 Sur 19 Sur 0 -- -- 31
2019-08-21 18:00:00 36 8 Sur 19 Sur 0 -- -- 30
2019-08-21 17:00:00 35.7 8 Sur 18 Sudoeste 0 -- -- 33
2019-08-21 16:00:00 35.7 6 Sur 17 Sudoeste 0 -- -- 33
2019-08-21 15:00:00 35.4 7 Noroeste 18 Noroeste 0 -- -- 34
2019-08-21 14:00:00 33.5 4 Noroeste 14 Sur 0 -- -- 35
2019-08-21 13:00:00 33.1 4 Sur 13 Norte 0 -- -- 34
2019-08-21 12:00:00 31.6 5 Norte 12 Norte 0 -- -- 34
2019-08-21 11:00:00 28.7 3 Nordeste 8 Nordeste 0 -- -- 35
2019-08-21 10:00:00 25 3 Norte 9 Norte 0 -- -- 47
2019-08-21 09:00:00 21 4 Norte 8 Noroeste 0 -- -- 63
2019-08-21 08:00:00 18.5 4 Noroeste 5 Noroeste 0 -- -- 68
2019-08-21 07:00:00 19 4 Noroeste 6 Norte 0 -- -- 67
2019-08-21 06:00:00 19.3 3 Norte 11 Norte 0 -- -- 68
2019-08-21 05:00:00 18.7 4 Norte 6 Norte 0 -- -- 76
2019-08-21 04:00:00 18.7 0 Calma 4 Sudoeste 0 -- -- 76
2019-08-21 03:00:00 19 0 Calma 11 Sur 0 -- -- 77
2019-08-21 02:00:00 19.3 4 Sudoeste 10 Sur 0 -- -- 74
2019-08-21 01:00:00 20.1 4 Sur 14 Sur 0 -- -- 66
2019-08-21 00:00:00 21.4 5 Sur 10 Sudoeste 0 -- -- 59
2019-08-20 23:00:00 23.1 3 Sur 9 Sudeste 0 -- -- 51
2019-08-20 22:00:00 25.2 3 Sur 12 Sur 0 -- -- 45
2019-08-20 21:00:00 28.3 5 Sur 19 Sur 0 -- -- 40
2019-08-20 20:00:00 31 12 Sur 21 Sur 0 -- -- 32
2019-08-20 19:00:00 32.9 10 Sudoeste 21 Sur 0 -- -- 25
2019-08-20 18:00:00 33.8 10 Sudoeste 18 Sudoeste 0 -- -- 27
2019-08-20 17:00:00 34.1 8 Sur 17 Sudoeste 0 -- -- 25
2019-08-20 16:00:00 33.5 8 Sur 17 Sudoeste 0 -- -- 24
2019-08-20 15:00:00 32.7 9 Sur 15 Sur 0 -- -- 25
2019-08-20 14:00:00 31.5 6 Sudoeste 15 Sur 0 -- -- 29
2019-08-20 13:00:00 30.5 6 Sudeste 12 Este 0 -- -- 32
2019-08-20 12:00:00 29.3 5 Este 10 Sudeste 0 -- -- 33
2019-08-20 11:00:00 27.6 2 Norte 5 Noroeste 0 -- -- 35
2019-08-20 10:00:00 23.7 0 Calma 3 Noroeste 0 -- -- 45
2019-08-20 09:00:00 19.6 0 Calma 6 Sur 0 -- -- 75
2019-08-20 08:00:00 17.4 0 Calma 3 Sur 0 -- -- 80
2019-08-20 07:00:00 17.7 2 Sudoeste 6 Sur 0 -- -- 77
2019-08-20 06:00:00 18 3 Sudoeste 6 Sudoeste 0 -- -- 78
2019-08-20 05:00:00 18.3 2 Sudoeste 6 Sudoeste 0 -- -- 77
2019-08-20 04:00:00 18.9 0 Calma 6 Sudoeste 0 -- -- 75
2019-08-20 03:00:00 19.5 3 Sur 8 Sudoeste 0 -- -- 74
2019-08-20 02:00:00 20.2 3 Sur 10 Sur 0 -- -- 71
2019-08-20 01:00:00 20.9 7 Sur 14 Sur 0 -- -- 66
2019-08-20 00:00:00 22 7 Sur 12 Sudoeste 0 -- -- 56
2019-08-19 23:00:00 23.7 6 Sudeste 15 Sudoeste 0 -- -- 50
2019-08-19 22:00:00 27 7 Sur 19 Oeste 0 -- -- 43
2019-08-19 21:00:00 30.7 11 Sudoeste 31 Sudoeste 0 -- -- 32
2019-08-19 20:00:00 32.9 14 Sudoeste 30 Sudoeste 0 -- -- 28
2019-08-19 19:00:00 34.4 15 Sudoeste 30 Sur 0 -- -- 27
2019-08-19 18:00:00 33.7 15 Sur 33 Sur 0 -- -- 29
2019-08-19 17:00:00 33.4 19 Sur 36 Sudoeste 0 -- -- 40
2019-08-19 16:00:00 33.9 16 Sur 31 Sur 0 -- -- 42
2019-08-19 15:00:00 33.6 10 Sur 23 Sudoeste 0 -- -- 45
2019-08-19 14:00:00 32.1 9 Sur 19 Sudoeste 0 -- -- 47
2019-08-19 13:00:00 29.9 8 Sur 14 Sur 0 -- -- 54
2019-08-19 12:00:00 28.2 6 Sur 13 Sudeste 0 -- -- 61
2019-08-19 11:00:00 26 5 Sur 13 Sudeste 0 -- -- 66
2019-08-19 10:00:00 23.9 5 Sur 9 Sudoeste 0 -- -- 74
2019-08-19 09:00:00 21.1 4 Sur 6 Sur 0 -- -- 85
2019-08-19 08:00:00 19.4 3 Sudoeste 6 Sudoeste 0 -- -- 89
2019-08-19 07:00:00 19.4 0 Calma -- -- 0 -- -- 86
2019-08-19 06:00:00 19.5 0 Calma 4 Sudoeste 0 -- -- 83
2019-08-19 05:00:00 20 3 Sudoeste 6 Sudoeste 0 -- -- 81
2019-08-19 04:00:00 20.2 0 Calma 4 Sudoeste 0 -- -- 80
2019-08-19 03:00:00 20.8 3 Sudoeste 10 Sudoeste 0 -- -- 79
2019-08-19 02:00:00 21.2 6 Sur 14 Sudoeste 0 -- -- 78
2019-08-19 01:00:00 21.5 7 Sur 14 Sur 0 -- -- 79
2019-08-19 00:00:00 22 8 Sur 17 Sur 0 -- -- 77
2019-08-18 23:00:00 23.1 8 Sur 20 Sudoeste 0 -- -- 70
2019-08-18 22:00:00 25.7 11 Sur 23 Sudoeste 0 -- -- 56
2019-08-18 21:00:00 28.6 12 Sur 26 Sudoeste 0 -- -- 44
2019-08-18 20:00:00 32.2 15 Sur 28 Sur 0 -- -- 39
2019-08-18 19:00:00 33.5 17 Sur 32 Sur 0 -- -- 38
2019-08-18 18:00:00 34.3 18 Sur 32 Sur 0 -- -- 38
2019-08-18 17:00:00 34.2 16 Sur 30 Sudoeste 0 -- -- 40
2019-08-18 16:00:00 33.9 14 Sur 29 Sudoeste 0 -- -- 41
2019-08-18 15:00:00 33 11 Sur 28 Sur 0 -- -- 46
2019-08-18 14:00:00 31.4 12 Sur 26 Sur 0 -- -- 51
2019-08-18 13:00:00 29.8 13 Sur 24 Sur 0 -- -- 56
2019-08-18 12:00:00 28.2 12 Sudoeste 22 Sur 0 -- -- 59
2019-08-18 11:00:00 26.2 9 Sur 19 Sur 0 -- -- 66
2019-08-18 10:00:00 23.7 9 Sur 17 Sur 0 -- -- 71
2019-08-18 09:00:00 22.1 5 Sur 10 Sur 0 -- -- 66
2019-08-18 08:00:00 20.3 2 Sur 8 Sudeste 0 -- -- 68
2019-08-18 07:00:00 20.3 0 Calma -- -- 0 -- -- 69
2019-08-18 06:00:00 20.8 0 Calma 4 Sudoeste 0 -- -- 69
2019-08-18 05:00:00 21.2 0 Calma 4 Sudoeste 0 -- -- 69
2019-08-18 04:00:00 21.6 0 Calma 7 Sur 0 -- -- 69
2019-08-18 03:00:00 22.2 3 Sudoeste 11 Sudoeste 0 -- -- 71
2019-08-18 02:00:00 22.8 4 Sur 12 Sudoeste 0 -- -- 66
2019-08-18 01:00:00 23.8 4 Sur 12 Sudeste 0 -- -- 59
2019-08-18 00:00:00 26 4 Sur 10 Sudoeste 0 -- -- 50
2019-08-17 23:00:00 30.5 5 Sur 12 Oeste 0 -- -- 32
2019-08-17 22:00:00 32.9 3 Sur 20 Oeste 0 -- -- 29
2019-08-17 21:00:00 35.1 10 Oeste 26 Sudoeste 0 -- -- 25
2019-08-17 20:00:00 36.8 12 Oeste 28 Oeste 0 -- -- 23
2019-08-17 19:00:00 38.8 12 Oeste 26 Sudoeste 0 -- -- 24
2019-08-17 18:00:00 39.4 9 Sur 18 Sur 0 -- -- 24
2019-08-17 17:00:00 39.4 12 Sur 22 Sur 0 -- -- 20
2019-08-17 16:00:00 39.7 10 Sur 18 Sur 0 -- -- 21
2019-08-17 15:00:00 38.9 5 Sur 13 Sudoeste 0 -- -- 24
2019-08-17 14:00:00 37.1 3 Noroeste 9 Este 0 -- -- 29
2019-08-17 13:00:00 35.6 3 Norte 9 Norte 0 -- -- 32
2019-08-17 12:00:00 33.1 3 Norte 9 Norte 0 -- -- 36
2019-08-17 11:00:00 30.5 3 Nordeste 9 Nordeste 0 -- -- 41
2019-08-17 10:00:00 27.2 5 Norte 9 Nordeste 0 -- -- 47
2019-08-17 09:00:00 22.9 6 Norte 9 Norte 0 -- -- 64
2019-08-17 08:00:00 20.3 0 Calma 5 Noroeste 0 -- -- 72
2019-08-17 07:00:00 20.4 0 Calma 5 Norte 0 -- -- 70
2019-08-17 06:00:00 20.7 0 Calma -- -- 0 -- -- 77
2019-08-17 05:00:00 21 0 Calma 7 Sudoeste 0 -- -- 75
2019-08-17 04:00:00 21.5 3 Sudoeste 11 Sur 0 -- -- 73
2019-08-17 03:00:00 21.9 4 Sudoeste 12 Sur 0 -- -- 71
2019-08-17 02:00:00 22.7 6 Sur 12 Sur 0 -- -- 65
2019-08-17 01:00:00 24.5 2 Sur 10 Sudoeste 0 -- -- 56
2019-08-17 00:00:00 27.6 3 Sur 13 Oeste 0 -- -- 43
2019-08-16 23:00:00 29.6 5 Oeste 14 Oeste 0 -- -- 37
2019-08-16 22:00:00 31.6 5 Sudoeste 17 Sudoeste 0 -- -- 31
2019-08-16 21:00:00 33.9 9 Sudoeste 24 Oeste 0 -- -- 28
2019-08-16 20:00:00 35.9 10 Sudoeste 24 Oeste 0 -- -- 26
2019-08-16 19:00:00 37.3 11 Sudoeste 31 Oeste 0 -- -- 25
2019-08-16 18:00:00 38.1 13 Sudoeste 30 Sur 0 -- -- 25
2019-08-16 17:00:00 37.4 16 Sudoeste 28 Sur 0 -- -- 29
2019-08-16 16:00:00 36.9 13 Sur 27 Sur 0 -- -- 33
2019-08-16 15:00:00 36.1 10 Sur 20 Sur 0 -- -- 36
2019-08-16 14:00:00 34.2 9 Sur 20 Sudoeste 0 -- -- 38
2019-08-16 13:00:00 32.8 13 Sur 20 Sur 0 -- -- 35
2019-08-16 12:00:00 31.5 9 Sur 19 Sur 0 -- -- 39
2019-08-16 11:00:00 29.7 5 Sur 10 Sur 0 -- -- 44
2019-08-16 10:00:00 27.6 3 Noroeste 7 Noroeste 0 -- -- 53
2019-08-16 09:00:00 23.5 0 Calma 6 Noroeste 0 -- -- 69
2019-08-16 08:00:00 20.8 4 Noroeste 7 Norte 0 -- -- 79
2019-08-16 07:00:00 20.8 0 Calma -- -- 0 -- -- 77
2019-08-16 06:00:00 21.5 0 Calma 4 Sudeste 0 -- -- 74
2019-08-16 05:00:00 21.6 2 Sur 5 Sur 0 -- -- 75
2019-08-16 04:00:00 21.7 0 Calma 9 Sudoeste 0 -- -- 73
2019-08-16 03:00:00 22.2 6 Sur 16 Sur 0 -- -- 73
2019-08-16 02:00:00 23 10 Sur 14 Sur 0 -- -- 68
2019-08-16 01:00:00 24.2 5 Sur 12 Sur 0 -- -- 60
2019-08-16 00:00:00 27.3 4 Sur 9 Sudoeste 0 -- -- 47
2019-08-15 23:00:00 29.5 5 Sur 15 Sur 0 -- -- 37
2019-08-15 22:00:00 32.6 8 Sudoeste 22 Oeste 0 -- -- 31
2019-08-15 21:00:00 34.5 11 Oeste 26 Oeste 0 -- -- 29
2019-08-15 20:00:00 36.3 12 Oeste 24 Oeste 0 -- -- 28
2019-08-15 19:00:00 37.6 13 Sudoeste 27 Sudoeste 0 -- -- 29
2019-08-15 18:00:00 38.4 12 Sur 21 Sur 0 -- -- 26
2019-08-15 17:00:00 39 7 Sur 17 Sur 0 -- -- 27
2019-08-15 16:00:00 38.4 9 Sudoeste 18 Sudoeste 0 -- -- 30
2019-08-15 15:00:00 37.6 4 Sur 22 Este 0 -- -- 30
2019-08-15 14:00:00 35.9 4 Sudeste 12 Sur 0 -- -- 32
2019-08-15 13:00:00 34.2 3 Noroeste 8 Norte 0 -- -- 34
2019-08-15 12:00:00 32.2 3 Norte 8 Nordeste 0 -- -- 42
2019-08-15 11:00:00 29.6 3 Noroeste 8 Norte 0 -- -- 49
2019-08-15 10:00:00 26.9 3 Norte 8 Norte 0 -- -- 61
2019-08-15 09:00:00 23.4 4 Norte 8 Norte 0 -- -- 72
2019-08-15 08:00:00 21.3 4 Norte 9 Norte 0 -- -- 79
2019-08-15 07:00:00 21 4 Noroeste 8 Norte 0 -- -- 79
2019-08-15 06:00:00 20.9 0 Calma 2 Norte 0 -- -- 79
2019-08-15 05:00:00 21.2 0 Calma 5 Sudoeste 0 -- -- 80
2019-08-15 04:00:00 21.3 3 Sur 7 Sudoeste 0 -- -- 81
2019-08-15 03:00:00 21.9 0 Calma 6 Sudoeste 0 -- -- 80
2019-08-15 02:00:00 22.3 5 Sur 17 Sur 0 -- -- 79
2019-08-15 01:00:00 23 8 Sur 19 Sur 0 -- -- 77
2019-08-15 00:00:00 24.7 9 Sur 20 Sur 0 -- -- 69
2019-08-14 23:00:00 30 6 Sur 18 Noroeste 0 -- -- 41
2019-08-14 22:00:00 32 9 Oeste 22 Oeste 0 -- -- 38
2019-08-14 21:00:00 34.2 8 Oeste 20 Oeste 0 -- -- 35
2019-08-14 20:00:00 36.4 7 Sur 13 Sudoeste 0 -- -- 23
2019-08-14 19:00:00 37.9 2 Sur 14 Este 0 -- -- 22
2019-08-14 18:00:00 38.5 5 Este 15 Este 0 -- -- 21
2019-08-14 17:00:00 38 5 Nordeste 12 Norte 0 -- -- 22
2019-08-14 16:00:00 37.6 4 Oeste 12 Norte 0 -- -- 26
2019-08-14 15:00:00 36.6 3 Noroeste 13 Nordeste 0 -- -- 27
2019-08-14 14:00:00 35.2 4 Norte 10 Norte 0 -- -- 30
2019-08-14 13:00:00 33.4 4 Norte 13 Este 0 -- -- 37
2019-08-14 12:00:00 31.1 7 Norte 14 Norte 0 -- -- 40
2019-08-14 11:00:00 28.5 6 Norte 12 Norte 0 -- -- 39
2019-08-14 10:00:00 25.6 6 Norte 12 Norte 0 -- -- 47
2019-08-14 09:00:00 21.7 4 Norte 6 Norte 0 -- -- 59
2019-08-14 08:00:00 18.7 0 Calma 6 Noroeste 0 -- -- 64
2019-08-14 07:00:00 19.2 4 Noroeste 8 Norte 0 -- -- 59
2019-08-14 06:00:00 18.7 4 Norte 8 Norte 0 -- -- 71
2019-08-14 05:00:00 18.7 0 Calma 3 Noroeste 0 -- -- 74
2019-08-14 04:00:00 19.1 0 Calma 3 Sudoeste 0 -- -- 73
2019-08-14 03:00:00 19.6 2 Sudoeste 7 Sur 0 -- -- 73
2019-08-14 02:00:00 20.1 2 Sur 13 Sur 0 -- -- 68
2019-08-14 01:00:00 21 5 Sur 9 Sudeste 0 -- -- 61
2019-08-14 00:00:00 22.9 5 Sur 13 Sur 0 -- -- 52
2019-08-13 23:00:00 25.7 6 Sur 17 Sur 0 -- -- 42
2019-08-13 22:00:00 29.5 4 Sudoeste 19 Oeste 0 -- -- 28
2019-08-13 21:00:00 32 9 Oeste 24 Sudoeste 0 -- -- 25
2019-08-13 20:00:00 33.5 12 Sudoeste 23 Sudoeste 0 -- -- 24
2019-08-13 19:00:00 36 6 Sur 15 Sudoeste 0 -- -- 20
2019-08-13 18:00:00 37 6 Sudeste 18 Este 0 -- -- 16
2019-08-13 17:00:00 36.9 4 Sudeste 12 Este 0 -- -- 16
2019-08-13 16:00:00 36.3 4 Este 15 Oeste 0 -- -- 19
2019-08-13 15:00:00 35.2 4 Noroeste 12 Sudoeste 0 -- -- 22
2019-08-13 14:00:00 34.1 4 Nordeste 9 Noroeste 0 -- -- 23
2019-08-13 13:00:00 31.3 3 Sur 14 Sudeste 0 -- -- 26
2019-08-13 12:00:00 30.5 3 Sur 12 Este 0 -- -- 28
2019-08-13 11:00:00 28.6 6 Este 13 Este 0 -- -- 30
2019-08-13 10:00:00 25.6 5 Este 12 Nordeste 0 -- -- 37
2019-08-13 09:00:00 20.3 0 Calma 2 Noroeste 0 -- -- 74
2019-08-13 08:00:00 16.7 0 Calma 4 Sudoeste 0 -- -- 80
2019-08-13 07:00:00 17.4 0 Calma 5 Sur 0 -- -- 78
2019-08-13 06:00:00 17.6 0 Calma 6 Sur 0 -- -- 76
2019-08-13 05:00:00 18.2 0 Calma 5 Sur 0 -- -- 72
2019-08-13 04:00:00 18.7 3 Sur 7 Sur 0 -- -- 73
2019-08-13 03:00:00 19.5 2 Sur 8 Sudeste 0 -- -- 68
2019-08-13 02:00:00 20.5 5 Sur 9 Sur 0 -- -- 65
2019-08-13 01:00:00 21.4 4 Sur 11 Sudoeste 0 -- -- 60
2019-08-13 00:00:00 22.6 3 Sur 7 Sur 0 -- -- 53
2019-08-12 23:00:00 23.3 4 Sur 12 Sudeste 0 -- -- 49
2019-08-12 22:00:00 25.7 4 Sur 12 Sudoeste 0 -- -- 40
2019-08-12 21:00:00 29.2 9 Sudoeste 23 Sudoeste 0 -- -- 28
2019-08-12 20:00:00 31.8 13 Sudoeste 23 Sudoeste 0 -- -- 26
2019-08-12 19:00:00 34 0 Calma 19 Norte 0 -- -- 15
2019-08-12 18:00:00 35 5 Norte 21 Noroeste 0 -- -- 18
2019-08-12 17:00:00 35.1 7 Este 22 Nordeste 0 -- -- 16
2019-08-12 16:00:00 34.8 5 Nordeste 23 Norte 0 -- -- 18
2019-08-12 15:00:00 33.5 4 Norte 18 Norte 0 -- -- 20
2019-08-12 14:00:00 32.8 7 Norte 17 Nordeste 0 -- -- 19
2019-08-12 13:00:00 31.3 5 Nordeste 21 Norte 0 -- -- 25
2019-08-12 12:00:00 29.2 9 Nordeste 23 Norte 0 -- -- 28
2019-08-12 11:00:00 26.6 8 Nordeste 19 Norte 0 -- -- 37
2019-08-12 10:00:00 24 9 Norte 18 Noroeste 0 -- -- 42
2019-08-12 09:00:00 22 9 Norte 15 Norte 0 -- -- 46
2019-08-12 08:00:00 20.2 2 Nordeste 12 Nordeste 0 -- -- 51
2019-08-12 07:00:00 20.8 4 Nordeste 10 Norte 0 -- -- 47
2019-08-12 06:00:00 21.9 6 Norte 14 Norte 0 -- -- 43
2019-08-12 05:00:00 22.3 6 Norte 20 Norte 0 -- -- 42
2019-08-12 04:00:00 23.1 8 Norte 30 Norte 0 -- -- 39
2019-08-12 03:00:00 23.6 12 Norte 28 Norte 0 -- -- 37
2019-08-12 02:00:00 24.3 10 Norte 22 Noroeste 0 -- -- 36
2019-08-12 01:00:00 24.7 7 Noroeste 19 Norte 0 -- -- 34
2019-08-12 00:00:00 25.4 5 Norte 14 Noroeste 0 -- -- 31
2019-08-11 23:00:00 26.8 6 Norte 23 Norte 0 -- -- 29
2019-08-11 22:00:00 28.2 13 Norte 31 Noroeste 0 -- -- 26
2019-08-11 21:00:00 30.5 10 Noroeste 23 Norte 0 -- -- 21
2019-08-11 20:00:00 32.3 7 Norte 23 Oeste 0 -- -- 20
2019-08-11 19:00:00 32.7 8 Sur 23 Sur 0 -- -- 27
2019-08-11 18:00:00 33.1 11 Sur 23 Sur 0 -- -- 26
2019-08-11 17:00:00 32.4 11 Sudoeste 23 Sur 0 -- -- 27
2019-08-11 16:00:00 33.3 13 Sur 23 Sur 0 -- -- 29
2019-08-11 15:00:00 34.3 5 Este 17 Norte 0 -- -- 24
2019-08-11 14:00:00 32.7 10 Norte 25 Noroeste 0 -- -- 21
2019-08-11 13:00:00 31.2 6 Noroeste 27 Noroeste 0 -- -- 23
2019-08-11 12:00:00 28.8 5 Este 17 Norte 0 -- -- 34
2019-08-11 11:00:00 26.7 6 Norte 17 Noroeste 0 -- -- 37
2019-08-11 10:00:00 24.4 8 Norte 16 Norte 0 -- -- 42
2019-08-11 09:00:00 21.9 9 Norte 21 Norte 0 -- -- 47
2019-08-11 08:00:00 20.8 10 Norte 20 Norte 0 -- -- 51
2019-08-11 07:00:00 20.5 6 Norte 14 Norte 0 -- -- 57
2019-08-11 06:00:00 20.3 6 Noroeste 14 Noroeste 0 -- -- 60
2019-08-11 05:00:00 20.5 5 Norte 10 Norte 0 -- -- 60
2019-08-11 04:00:00 19.4 0 Calma -- -- 0 -- -- 70
2019-08-11 03:00:00 19.7 0 Calma 4 Sur 0 -- -- 77
2019-08-11 02:00:00 20.2 0 Calma 6 Sur 0 -- -- 77
2019-08-11 01:00:00 20.7 4 Sur 15 Sur 0 -- -- 74
2019-08-11 00:00:00 21.5 6 Sur 15 Sudoeste 0 -- -- 70
2019-08-10 23:00:00 22.9 5 Sur 15 Sur 0 -- -- 58
2019-08-10 22:00:00 25.2 5 Sur 16 Sur 0 -- -- 51
2019-08-10 21:00:00 28.3 10 Sur 22 Sur 0 -- -- 45
2019-08-10 20:00:00 32.4 15 Sudoeste 28 Sudoeste 0 -- -- 32
2019-08-10 19:00:00 33.5 17 Sur 32 Sudoeste 0 -- -- 35
2019-08-10 18:00:00 34.5 13 Sur 28 Sudoeste 0 -- -- 37
2019-08-10 17:00:00 35.2 8 Sudoeste 23 Sur 0 -- -- 39
2019-08-10 16:00:00 34.9 8 Sudoeste 20 Oeste 0 -- -- 41
2019-08-10 15:00:00 35.1 6 Norte 14 Noroeste 0 -- -- 39
2019-08-10 14:00:00 33.9 5 Noroeste 12 Este 0 -- -- 40
2019-08-10 13:00:00 33 5 Norte 12 Norte 0 -- -- 41
2019-08-10 12:00:00 31.1 5 Nordeste 14 Nordeste 0 -- -- 45
2019-08-10 11:00:00 29.2 5 Nordeste 16 Nordeste 0 -- -- 50
2019-08-10 10:00:00 26.7 5 Nordeste 13 Este 0 -- -- 60
2019-08-10 09:00:00 23.6 0 Calma 6 Sudeste 0 -- -- 83
2019-08-10 08:00:00 20.9 0 Calma 5 Sur 0 -- -- 91
2019-08-10 07:00:00 21 2 Sudoeste 5 Sudoeste 0 -- -- 91
2019-08-10 06:00:00 21.1 0 Calma 5 Sudoeste 0 -- -- 90
2019-08-10 05:00:00 21.2 3 Sudoeste 8 Sur 0 -- -- 90
2019-08-10 04:00:00 21.5 2 Sur 11 Sur 0 -- -- 90
2019-08-10 03:00:00 21.7 4 Sur 10 Sur 0 -- -- 89
2019-08-10 02:00:00 22.1 5 Sur 12 Sudoeste 0 -- -- 88
2019-08-10 01:00:00 22.6 10 Sur 17 Sudoeste 0 -- -- 87
2019-08-10 00:00:00 23.3 8 Sur 22 Sudoeste 0 -- -- 84
2019-08-09 23:00:00 24.4 10 Sur 21 Sur 0 -- -- 79
2019-08-09 22:00:00 25.3 13 Sur 23 Sur 0 -- -- 76
2019-08-09 21:00:00 27.5 12 Sur 27 Oeste 0 -- -- 69
2019-08-09 20:00:00 30.2 13 Sudoeste 32 Sudoeste 0 -- -- 58
2019-08-09 19:00:00 31.4 18 Sur 33 Sur 0 -- -- 55
2019-08-09 18:00:00 31.4 23 Sur 38 Sur 0 -- -- 53
2019-08-09 17:00:00 33.1 19 Sur 31 Sur 0 -- -- 46
2019-08-09 16:00:00 33.6 14 Sur 27 Sudoeste 0 -- -- 45
2019-08-09 15:00:00 32.8 13 Sur 28 Sur 0 -- -- 48
2019-08-09 14:00:00 31.9 9 Sur 22 Sur 0 -- -- 52
2019-08-09 13:00:00 30.7 7 Sur 15 Sudeste 0 -- -- 54
2019-08-09 12:00:00 29.3 6 Sur 13 Sur 0 -- -- 57
2019-08-09 11:00:00 27.1 3 Oeste 8 Sudeste 0 -- -- 66
2019-08-09 10:00:00 24.5 4 Sur 6 Este 0 -- -- 76
2019-08-09 09:00:00 21.3 2 Sudoeste 6 Sudoeste 0 -- -- 88
2019-08-09 08:00:00 19.7 3 Sur 5 Sudeste 0 -- -- 93
2019-08-09 07:00:00 19.4 2 Sudeste 7 Sur 0 -- -- 92
2019-08-09 06:00:00 19.8 3 Sudoeste 9 Sur 0 -- -- 92
2019-08-09 05:00:00 19.9 4 Sudoeste 9 Sudoeste 0 -- -- 91
2019-08-09 04:00:00 20.4 5 Sur 9 Sudoeste 0 -- -- 89
2019-08-09 03:00:00 20.8 4 Sur 13 Sur 0 -- -- 88
2019-08-09 02:00:00 21.1 6 Sur 14 Sudoeste 0 -- -- 86
2019-08-09 01:00:00 21.5 4 Sur 12 Sur 0 -- -- 80
2019-08-09 00:00:00 23.2 5 Sur 14 Sudoeste 0 -- -- 65
2019-08-08 23:00:00 25.8 7 Sudoeste 16 Oeste 0 -- -- 52
2019-08-08 22:00:00 27.8 7 Sudoeste 27 Oeste 0 -- -- 42
2019-08-08 21:00:00 30.7 10 Sudoeste 27 Sudoeste 0 -- -- 34
2019-08-08 20:00:00 33.3 13 Sudoeste 30 Sur 0 -- -- 30
2019-08-08 19:00:00 34 18 Sur 35 Sur 0 -- -- 32
2019-08-08 18:00:00 35.3 14 Sur 32 Sudoeste 0 -- -- 35
2019-08-08 17:00:00 36 18 Sudoeste 28 Sur 0 -- -- 35
2019-08-08 16:00:00 35.8 9 Sur 21 Sur 0 -- -- 34
2019-08-08 15:00:00 36.4 6 Oeste 15 Sudoeste 0 -- -- 32
2019-08-08 14:00:00 35.1 5 Sudoeste 11 Sudoeste 0 -- -- 32
2019-08-08 13:00:00 34 3 Nordeste 12 Sudeste 0 -- -- 34
2019-08-08 12:00:00 31.9 5 Este 12 Este 0 -- -- 42
2019-08-08 11:00:00 29.5 5 Nordeste 11 Norte 0 -- -- 50
2019-08-08 10:00:00 26.6 3 Nordeste 9 Nordeste 0 -- -- 63
2019-08-08 09:00:00 22.1 0 Calma -- -- 0 -- -- 77
2019-08-08 08:00:00 19.2 0 Calma 4 Sur 0 -- -- 85
2019-08-08 07:00:00 19.3 0 Calma 5 Sudoeste 0 -- -- 83
2019-08-08 06:00:00 20 2 Sur 4 Sur 0 -- -- 84
2019-08-08 05:00:00 20.5 0 Calma 6 Sur 0 -- -- 81
2019-08-08 04:00:00 21.1 3 Sur 6 Sur 0 -- -- 81
2019-08-08 03:00:00 21.9 0 Calma 8 Sudoeste 0 -- -- 76
2019-08-08 02:00:00 22.8 3 Sur 8 Sur 0 -- -- 72
2019-08-08 01:00:00 23.4 3 Sur 10 Sudeste 0 -- -- 70
2019-08-08 00:00:00 24 6 Sur 13 Sur 0 -- -- 67
2019-08-07 23:00:00 25.4 7 Sur 13 Sur 0 -- -- 61
2019-08-07 22:00:00 26.7 9 Sur 16 Sudoeste 0 -- -- 57
2019-08-07 21:00:00 29.2 7 Sur 21 Oeste 0 -- -- 49
2019-08-07 20:00:00 31.1 11 Sudoeste 24 Sudoeste 0 -- -- 44
2019-08-07 19:00:00 33 13 Sudoeste 22 Sudoeste 0 -- -- 41
2019-08-07 18:00:00 32.8 11 Sur 20 Sur 0 -- -- 41
2019-08-07 17:00:00 32.8 11 Sur 23 Sur 0 -- -- 42
2019-08-07 16:00:00 31.8 7 Sur 14 Sur 0 -- -- 43
2019-08-07 15:00:00 31.1 8 Sur 17 Sur 0 -- -- 43
2019-08-07 14:00:00 31 9 Sur 15 Sur 0 -- -- 44
2019-08-07 13:00:00 29.8 5 Sur 12 Sudoeste 0 -- -- 52
2019-08-07 12:00:00 27.6 5 Sur 11 Sur 0 -- -- 58
2019-08-07 11:00:00 25.9 3 Sudeste 8 Este 0 -- -- 66
2019-08-07 10:00:00 22 3 Sur 8 Sudoeste 0 -- -- 82
2019-08-07 09:00:00 20.6 4 Sur 6 Sudeste 0 -- -- 88
2019-08-07 08:00:00 19.3 0 Calma 8 Sudeste 0 -- -- 88
2019-08-07 07:00:00 19.4 0 Calma 5 Sudoeste 0 -- -- 86
2019-08-07 06:00:00 19.8 3 Sur 10 Sur 0 -- -- 82
2019-08-07 05:00:00 19.8 5 Sur 9 Sudeste 0 -- -- 84
2019-08-07 04:00:00 20.1 3 Sudoeste 8 Sudoeste 0 -- -- 79
2019-08-07 03:00:00 20.4 3 Sur 11 Sudoeste 0 -- -- 76
2019-08-07 02:00:00 21 6 Sur 17 Sur 0 -- -- 73
2019-08-07 01:00:00 22 8 Sudoeste 15 Sur 0 -- -- 72
2019-08-07 00:00:00 23.8 6 Sur 15 Sur 0 -- -- 58
2019-08-06 23:00:00 27.2 4 Sudoeste 16 Sudoeste 0 -- -- 40
2019-08-06 22:00:00 28.3 8 Sur 15 Sudoeste 0 -- -- 39
2019-08-06 21:00:00 32.7 9 Sudoeste 21 Sudoeste 0 -- -- 22
2019-08-06 20:00:00 34.3 10 Sudoeste 30 Sur 0 -- -- 23
2019-08-06 19:00:00 35.1 19 Sur 31 Sur 0 -- -- 25
2019-08-06 18:00:00 35.7 14 Sur 27 Sur 0 -- -- 24
2019-08-06 17:00:00 36.2 10 Sur 21 Sudoeste 0 -- -- 26
2019-08-06 16:00:00 35.9 8 Sur 17 Sur 0 -- -- 31
2019-08-06 15:00:00 33.8 5 Sudoeste 15 Sudoeste 0 -- -- 33
2019-08-06 14:00:00 32.2 5 Sur 17 Sur 0 -- -- 39
2019-08-06 13:00:00 30 8 Sur 17 Sudoeste 0 -- -- 46
2019-08-06 12:00:00 27.3 4 Sur 13 Sur 0 -- -- 57
2019-08-06 11:00:00 24.3 6 Sudoeste 15 Sur 0 -- -- 72
2019-08-06 10:00:00 22.8 8 Sur 14 Sur 0 -- -- 77
2019-08-06 09:00:00 21.3 5 Norte 9 Noroeste 0 -- -- 80
2019-08-06 08:00:00 17.8 0 Calma 3 Noroeste 0 -- -- 90
2019-08-06 07:00:00 17.9 0 Calma 5 Sur 0 -- -- 87
2019-08-06 06:00:00 18.2 3 Sur 5 Sur 0 -- -- 86
2019-08-06 05:00:00 18.3 2 Sur 6 Sur 0 -- -- 84
2019-08-06 04:00:00 18.7 2 Sur 10 Sudoeste 0 -- -- 80
2019-08-06 03:00:00 19.1 3 Sur 13 Sur 0 -- -- 76
2019-08-06 02:00:00 19.8 7 Sur 14 Sur 0 -- -- 76
2019-08-06 01:00:00 20.3 4 Sur 17 Sudoeste 0 -- -- 78
2019-08-06 00:00:00 21 7 Sur 19 Sudeste 0 -- -- 73
2019-08-05 23:00:00 23.4 7 Sur 14 Sur 0 -- -- 56
2019-08-05 22:00:00 27.4 5 Sur 20 Sur 0 -- -- 41
2019-08-05 21:00:00 31.3 13 Sur 23 Oeste 0 -- -- 33
2019-08-05 20:00:00 35 12 Sudoeste 29 Oeste 0 -- -- 23
2019-08-05 19:00:00 36.7 13 Oeste 33 Sur 0 -- -- 23
2019-08-05 18:00:00 36.4 21 Sur 30 Sur 0 -- -- 26
2019-08-05 17:00:00 36.8 15 Sur 29 Sur 0 -- -- 30
2019-08-05 16:00:00 36.7 11 Sur 21 Sudoeste 0 -- -- 31
2019-08-05 15:00:00 35.7 10 Sur 20 Sudoeste 0 -- -- 37
2019-08-05 14:00:00 35.5 6 Sudoeste 16 Sur 0 -- -- 34
2019-08-05 13:00:00 33.3 5 Sudeste 12 Sur 0 -- -- 36
2019-08-05 12:00:00 31.7 4 Sudeste 9 Sur 0 -- -- 41
2019-08-05 11:00:00 29.3 3 Norte 8 Norte 0 -- -- 47
2019-08-05 10:00:00 26.3 2 Norte 9 Norte 0 -- -- 56
2019-08-05 09:00:00 22.5 3 Norte 9 Noroeste 0 -- -- 69
2019-08-05 08:00:00 18.9 0 Calma 8 Noroeste 0 -- -- 84
2019-08-05 07:00:00 19.2 0 Calma 6 Sur 0 -- -- 80
2019-08-05 06:00:00 19.7 3 Sudoeste 9 Sur 0 -- -- 80
2019-08-05 05:00:00 19.7 0 Calma -- -- 0 -- -- 82
2019-08-05 04:00:00 20.3 0 Calma -- -- 0 -- -- 78
2019-08-05 03:00:00 21 0 Calma 6 Sudoeste 0 -- -- 75
2019-08-05 02:00:00 21.5 4 Sur 11 Sur 0 -- -- 74
2019-08-05 01:00:00 22.6 3 Sudoeste 13 Sur 0 -- -- 67
2019-08-05 00:00:00 24.2 8 Sur 15 Sudoeste 0 -- -- 61
2019-08-04 23:00:00 26.7 6 Sur 15 Sudoeste 0 -- -- 51
2019-08-04 22:00:00 29 5 Sur 18 Oeste 0 -- -- 42
2019-08-04 21:00:00 31.4 12 Sudoeste 23 Sudoeste 0 -- -- 38
2019-08-04 20:00:00 33.1 12 Sur 25 Sur 0 -- -- 37
2019-08-04 19:00:00 34.6 14 Sur 30 Sur 0 -- -- 33
2019-08-04 18:00:00 35 16 Sur 28 Sur 0 -- -- 38
2019-08-04 17:00:00 35.7 10 Sur 22 Sur 0 -- -- 37
2019-08-04 16:00:00 35 8 Sur 19 Sudoeste 0 -- -- 42
2019-08-04 15:00:00 34 7 Sur 15 Sudeste 0 -- -- 43
2019-08-04 14:00:00 31.9 4 Noroeste 13 Oeste 0 -- -- 50
2019-08-04 13:00:00 28.7 7 Sudoeste 16 Sur 0 -- -- 61
2019-08-04 12:00:00 25.8 5 Sur 13 Sudeste 0 -- -- 71
2019-08-04 11:00:00 22.2 6 Sur 11 Sudoeste 0 -- -- 84
2019-08-04 10:00:00 21.1 4 Sur 9 Sur 0 -- -- 89
2019-08-04 09:00:00 20.3 3 Sur 9 Sur 0 -- -- 92
2019-08-04 08:00:00 19 0 Calma -- -- 0 -- -- 92
2019-08-04 07:00:00 18.3 0 Calma -- -- 0 -- -- 90
2019-08-04 06:00:00 18.4 0 Calma 4 Sudeste 0 -- -- 89
2019-08-04 05:00:00 18.6 0 Calma 5 Sudoeste 0 -- -- 87
2019-08-04 04:00:00 18.8 0 Calma 5 Sudeste 0 -- -- 88
2019-08-04 03:00:00 19.5 2 Sur 10 Sur 0 -- -- 85
2019-08-04 02:00:00 19.7 4 Sur 9 Sur 0 -- -- 79
2019-08-04 01:00:00 20.2 6 Sur 10 Sudeste 0 -- -- 75
2019-08-04 00:00:00 21.1 4 Sur 13 Sudeste 0 -- -- 67
2019-08-03 23:00:00 23.2 6 Sur 15 Sur 0 -- -- 63
2019-08-03 22:00:00 27.9 6 Sur 19 Sudoeste 0 -- -- 46
2019-08-03 21:00:00 30.8 12 Sudoeste 24 Sudoeste 0 -- -- 37
2019-08-03 20:00:00 32 13 Sur 27 Sur 0 -- -- 37
2019-08-03 19:00:00 33.5 15 Sur 27 Sur 0 -- -- 34
2019-08-03 18:00:00 33.6 13 Sur 27 Sur 0 -- -- 33
2019-08-03 17:00:00 34.2 15 Sur 27 Sur 0 -- -- 35
2019-08-03 16:00:00 33.6 12 Sur 28 Sur 0 -- -- 39
2019-08-03 15:00:00 32.3 14 Sur 27 Sur 0 -- -- 46
2019-08-03 14:00:00 30.9 14 Sur 26 Sur 0 -- -- 50
2019-08-03 13:00:00 29.5 11 Sur 24 Sur 0 -- -- 50
2019-08-03 12:00:00 27.7 10 Sudoeste 19 Sudoeste 0 -- -- 51
2019-08-03 11:00:00 25.5 6 Sur 14 Sudeste 0 -- -- 65
2019-08-03 10:00:00 23.6 3 Sudoeste 9 Sur 0 -- -- 74
2019-08-03 09:00:00 21 0 Calma 4 Sur 0 -- -- 84
2019-08-03 08:00:00 18.3 0 Calma 3 Sur 0 -- -- 88
2019-08-03 07:00:00 18.2 0 Calma 4 Sur 0 -- -- 85
2019-08-03 06:00:00 18.4 0 Calma 5 Sudoeste 0 -- -- 83
2019-08-03 05:00:00 18.8 2 Sur 5 Sudeste 0 -- -- 82
2019-08-03 04:00:00 19 0 Calma 6 Sur 0 -- -- 84
2019-08-03 03:00:00 19.5 3 Sur 10 Sur 0 -- -- 82
2019-08-03 02:00:00 20.3 5 Sur 10 Sur 0 -- -- 78
2019-08-03 01:00:00 21.1 5 Sur 15 Sudoeste 0 -- -- 68
2019-08-03 00:00:00 22.8 6 Sur 14 Sudoeste 0 -- -- 56
2019-08-02 23:00:00 26.1 4 Sur 12 Sudoeste 0 -- -- 45
2019-08-02 22:00:00 30.3 4 Oeste 21 Oeste 0 -- -- 31
2019-08-02 21:00:00 32.9 10 Oeste 26 Sudoeste 0 -- -- 25
2019-08-02 20:00:00 34.5 14 Sudoeste 28 Sudoeste 0 -- -- 21
2019-08-02 19:00:00 35.7 16 Sudoeste 31 Sur 0 -- -- 20
2019-08-02 18:00:00 35.9 18 Sur 34 Sur 0 -- -- 23
2019-08-02 17:00:00 36.7 16 Sur 28 Sur 0 -- -- 25
2019-08-02 16:00:00 36.7 9 Sur 23 Sur 0 -- -- 23
2019-08-02 15:00:00 36.1 11 Sudoeste 21 Sur 0 -- -- 25
2019-08-02 14:00:00 34.8 8 Sur 15 Sudoeste 0 -- -- 30
2019-08-02 13:00:00 33.3 6 Sur 12 Sur 0 -- -- 32
2019-08-02 12:00:00 31.1 5 Sudeste 12 Sur 0 -- -- 34
2019-08-02 11:00:00 29.2 3 Norte 10 Norte 0 -- -- 41
2019-08-02 10:00:00 25.7 6 Norte 10 Norte 0 -- -- 50
2019-08-02 09:00:00 22 6 Noroeste 9 Noroeste 0 -- -- 66
2019-08-02 08:00:00 18.6 0 Calma 4 Sudoeste 0 -- -- 74
2019-08-02 07:00:00 18.9 3 Sudoeste 6 Sudoeste 0 -- -- 73
2019-08-02 06:00:00 19.3 0 Calma 4 Sur 0 -- -- 72
2019-08-02 05:00:00 19.4 0 Calma 5 Sudoeste 0 -- -- 72
2019-08-02 04:00:00 19.8 0 Calma 9 Sudoeste 0 -- -- 71
2019-08-02 03:00:00 20.2 2 Sur 9 Sudeste 0 -- -- 68
2019-08-02 02:00:00 21 5 Sudoeste 11 Sudoeste 0 -- -- 64
2019-08-02 01:00:00 22.5 4 Sur 10 Sur 0 -- -- 55
2019-08-02 00:00:00 22.8 8 Sur 13 Sudeste 0 -- -- 55
2019-08-01 23:00:00 24.4 5 Sur 14 Sur 0 -- -- 49
2019-08-01 22:00:00 28.1 6 Sur 22 Sudoeste 0 -- -- 40
2019-08-01 21:00:00 32.2 11 Sudoeste 27 Oeste 0 -- -- 39
2019-08-01 20:00:00 34.6 11 Oeste 32 Sudoeste 0 -- -- 31
2019-08-01 19:00:00 34.5 14 Sur 26 Sur 0 -- -- 41
2019-08-01 18:00:00 35.6 10 Sur 26 Sudoeste 0 -- -- 36
2019-08-01 17:00:00 36.8 12 Sudoeste 27 Sudoeste 0 -- -- 32
2019-08-01 16:00:00 36.7 9 Sudoeste 20 Oeste 0 -- -- 32
2019-08-01 15:00:00 35.8 8 Noroeste 19 Oeste 0 -- -- 29
2019-08-01 14:00:00 34.8 8 Oeste 18 Oeste 0 -- -- 34
2019-08-01 13:00:00 32.7 5 Sudoeste 16 Oeste 0 -- -- 41
2019-08-01 12:00:00 30.5 8 Sur 19 Oeste 0 -- -- 52
2019-08-01 11:00:00 29.6 4 Oeste 14 Oeste 0 -- -- 54
2019-08-01 10:00:00 28.2 3 Norte 7 Oeste 0 -- -- 49
2019-08-01 09:00:00 24.5 3 Oeste 8 Oeste 0 -- -- 62
2019-08-01 08:00:00 21.6 3 Noroeste 11 Noroeste 0 -- -- 56
2019-08-01 07:00:00 21.6 0 Calma 9 Sudoeste 0 -- -- 59
2019-08-01 06:00:00 22.6 5 Sur 8 Sur 0 -- -- 60
2019-08-01 05:00:00 23.5 4 Sudoeste 9 Sudoeste 0 -- -- 64
2019-08-01 04:00:00 24.3 5 Sudoeste 18 Sudoeste 0 -- -- 67
2019-08-01 03:00:00 24.6 5 Sudoeste 12 Sur 0 -- -- 69
2019-08-01 02:00:00 25.4 7 Sur 20 Sudoeste 0 -- -- 65
2019-08-01 01:00:00 26.6 6 Oeste 18 Oeste 0 -- -- 62
2019-08-01 00:00:00 27.4 9 Oeste 19 Oeste 0 -- -- 59
2019-07-31 23:00:00 28.6 10 Oeste 22 Sudoeste 0 -- -- 55
2019-07-31 22:00:00 30.3 10 Sudoeste 24 Sudoeste 0 -- -- 49
2019-07-31 21:00:00 32.5 14 Sudoeste 27 Oeste 0 -- -- 41
2019-07-31 20:00:00 34.8 8 Oeste 21 Sudoeste 0 -- -- 30
2019-07-31 19:00:00 35.3 12 Sudoeste 26 Sudoeste 0 -- -- 36
2019-07-31 18:00:00 36.2 10 Sur 24 Sur 0 -- -- 31
2019-07-31 17:00:00 36.3 9 Sur 22 Sur 0 -- -- 26
2019-07-31 16:00:00 35.6 10 Sur 25 Sur 0 -- -- 29
2019-07-31 15:00:00 34.6 10 Sur 22 Sudeste 0 -- -- 32
2019-07-31 14:00:00 34.1 9 Sur 21 Sudoeste 0 -- -- 33
2019-07-31 13:00:00 33.1 5 Oeste 18 Sudoeste 0 -- -- 27
2019-07-31 12:00:00 30.6 7 Sudoeste 19 Sudoeste 0 -- -- 27
2019-07-31 11:00:00 29.6 3 Sudoeste 9 Sur 0 -- -- 28
2019-07-31 10:00:00 26.7 0 Calma -- -- 0 -- -- 34
2019-07-31 09:00:00 22.4 0 Calma -- -- 0 -- -- 48
2019-07-31 08:00:00 19.6 0 Calma 8 Sudoeste 0 -- -- 61
2019-07-31 07:00:00 20.8 0 Calma 8 Norte 0 -- -- 39
2019-07-31 06:00:00 20 2 Norte 7 Nordeste 0 -- -- 56
2019-07-31 05:00:00 20.6 0 Calma 5 Noroeste 0 -- -- 56
2019-07-31 04:00:00 21.3 0 Calma 5 Sudoeste 0 -- -- 58
2019-07-31 03:00:00 21.9 0 Calma 6 Sur 0 -- -- 55
2019-07-31 02:00:00 22.9 3 Sudoeste 6 Sudoeste 0 -- -- 46
2019-07-31 01:00:00 24.5 0 Calma -- -- 0 -- -- 32
2019-07-31 00:00:00 26.9 0 Calma 8 Noroeste 0 -- -- 27
2019-07-30 23:00:00 28.2 6 Norte 11 Norte 0 -- -- 22
2019-07-30 22:00:00 29.5 0 Calma 13 Sudoeste 0 -- -- 32
2019-07-30 21:00:00 32.9 6 Sur 12 Sur 0 -- -- 26
2019-07-30 20:00:00 35.3 0 Calma 9 Norte 0 -- -- 18
2019-07-30 19:00:00 36.5 6 Sur 14 Nordeste 0 -- -- 16
2019-07-30 18:00:00 37.3 5 Noroeste 14 Nordeste 0 -- -- 16
2019-07-30 17:00:00 37.4 7 Norte 17 Nordeste 0 -- -- 19
2019-07-30 16:00:00 36.8 5 Norte 20 Norte 0 -- -- 19
2019-07-30 15:00:00 35.9 8 Norte 19 Nordeste 0 -- -- 21
2019-07-30 14:00:00 34.8 7 Nordeste 19 Norte 0 -- -- 24
2019-07-30 13:00:00 33.2 7 Norte 18 Norte 0 -- -- 27
2019-07-30 12:00:00 30.7 7 Nordeste 19 Nordeste 0 -- -- 30
2019-07-30 11:00:00 28.4 8 Nordeste 15 Norte 0 -- -- 34
2019-07-30 10:00:00 25.7 7 Nordeste 16 Nordeste 0 -- -- 39
2019-07-30 09:00:00 23.5 5 Norte 11 Norte 0 -- -- 45
2019-07-30 08:00:00 21.1 4 Norte 12 Norte 0 -- -- 49
2019-07-30 07:00:00 21.6 8 Norte 16 Norte 0 -- -- 46
2019-07-30 06:00:00 22.3 8 Norte 21 Norte 0 -- -- 43
2019-07-30 05:00:00 23 10 Norte 22 Norte 0 -- -- 41
2019-07-30 04:00:00 23.6 8 Norte 14 Noroeste 0 -- -- 40
2019-07-30 03:00:00 25.3 8 Norte 22 Norte 0 -- -- 36
2019-07-30 02:00:00 25.8 7 Norte 16 Norte 0 -- -- 34
2019-07-30 01:00:00 27 5 Norte 18 Norte 0 -- -- 33
2019-07-30 00:00:00 28.4 5 Norte 22 Norte 0 -- -- 32
2019-07-29 23:00:00 29.3 9 Noroeste 17 Noroeste 0 -- -- 31
2019-07-29 22:00:00 31 9 Noroeste 24 Oeste 0 -- -- 30
2019-07-29 21:00:00 32.6 10 Oeste 33 Oeste 0 -- -- 30
2019-07-29 20:00:00 32.6 14 Sudoeste 33 Sudoeste 0 -- -- 37
2019-07-29 19:00:00 32.5 17 Sur 34 Sur 0 -- -- 43
2019-07-29 18:00:00 33.7 17 Sur 29 Sur 0 -- -- 35
2019-07-29 17:00:00 34.3 12 Sur 23 Sudoeste 0 -- -- 32
2019-07-29 16:00:00 33.7 9 Sur 20 Sudoeste 0 -- -- 33
2019-07-29 15:00:00 33.1 5 Sudoeste 20 Oeste 0 -- -- 39
2019-07-29 14:00:00 32.2 4 Oeste 13 Oeste 0 -- -- 36
2019-07-29 13:00:00 30 6 Sudeste 12 Sudeste 0 -- -- 47
2019-07-29 12:00:00 28.6 4 Este 12 Sur 0 -- -- 53
2019-07-29 11:00:00 25.7 3 Sudeste 9 Sudeste 0 -- -- 64
2019-07-29 10:00:00 23 3 Sudoeste 11 Sudeste 0 -- -- 76
2019-07-29 09:00:00 20.4 5 Sur 9 Sudeste 0 -- -- 85
2019-07-29 08:00:00 18.9 2 Sudoeste 5 Sudoeste 0 -- -- 90
2019-07-29 07:00:00 19 3 Sudoeste 9 Sudeste 0 -- -- 89
2019-07-29 06:00:00 19.2 5 Sur 8 Sudeste 0 -- -- 88
2019-07-29 05:00:00 19.2 0 Calma 6 Sur 0 -- -- 88
2019-07-29 04:00:00 19.3 2 Sur 6 Sudoeste 0 -- -- 87
2019-07-29 03:00:00 19.9 4 Sur 15 Sur 0 -- -- 84
2019-07-29 02:00:00 20.4 7 Sur 17 Sur 0 -- -- 83
2019-07-29 01:00:00 20.8 8 Sur 16 Sudoeste 0 -- -- 80
2019-07-29 00:00:00 21.5 6 Sur 13 Sur 0 -- -- 75
2019-07-28 23:00:00 23 5 Sur 18 Sur 0 -- -- 66
2019-07-28 22:00:00 25 8 Sur 21 Sudoeste 0 -- -- 57
2019-07-28 21:00:00 26.6 10 Sudoeste 26 Sudoeste 0 -- -- 55
2019-07-28 20:00:00 28.8 13 Sudoeste 25 Sudoeste 0 -- -- 48
2019-07-28 19:00:00 29.6 15 Sudoeste 31 Sur 0 -- -- 49
2019-07-28 18:00:00 30.8 14 Sudoeste 27 Sur 0 -- -- 46
2019-07-28 17:00:00 31.9 10 Sudoeste 19 Sudoeste 0 -- -- 43
2019-07-28 16:00:00 31.5 9 Sudoeste 19 Oeste 0 -- -- 45
2019-07-28 15:00:00 29.4 3 Norte 14 Sudeste 0 -- -- 50
2019-07-28 14:00:00 29.6 7 Sudoeste 13 Sudoeste 0 -- -- 48
2019-07-28 13:00:00 28.7 6 Sudeste 15 Este 0 -- -- 50
2019-07-28 12:00:00 27.7 5 Noroeste 12 Este 0 -- -- 56
2019-07-28 11:00:00 26.1 2 Oeste 9 Sudeste 0 -- -- 60
2019-07-28 10:00:00 22.6 0 Calma 7 Sudoeste 0 -- -- 71
2019-07-28 09:00:00 19.9 3 Sur 6 Sudoeste 0 -- -- 82
2019-07-28 08:00:00 18.8 0 Calma 5 Sudoeste 0 -- -- 88
2019-07-28 07:00:00 18.5 3 Sur 9 Sur 0 -- -- 88
2019-07-28 06:00:00 18.3 0 Calma 4 Sudoeste 0 -- -- 92
2019-07-28 05:00:00 18.2 2 Sur 5 Sudoeste 0 -- -- 90
2019-07-28 04:00:00 18.9 3 Sur 5 Sudoeste 0 -- -- 89
2019-07-28 03:00:00 19.2 3 Sur 7 Sudoeste 0 -- -- 89
2019-07-28 02:00:00 19.8 3 Sudoeste 12 Sur 0 -- -- 87
2019-07-28 01:00:00 20.2 4 Sur 15 Sur 0 -- -- 86
2019-07-28 00:00:00 20.8 5 Sur 17 Sur 0 -- -- 82
2019-07-27 23:00:00 21.9 10 Sur 17 Sur 0 -- -- 77
2019-07-26 12:00:00 28.2 6 Sudoeste 16 Sur 0 -- -- 58
2019-07-26 11:00:00 26.9 0 Calma 6 Norte 0 -- -- 62
2019-07-26 10:00:00 24.7 0 Calma 5 Noroeste 0 -- -- 72
2019-07-26 09:00:00 21.7 3 Sudoeste 8 Sudoeste 0 -- -- 89
2019-07-26 08:00:00 20.6 4 Sur 9 Sur 0 -- -- 93
2019-07-26 07:00:00 20.6 5 Sur 11 Sur 0 -- -- 93
2019-07-26 06:00:00 20.7 5 Sudoeste 10 Sudoeste 0 -- -- 91
2019-07-26 05:00:00 20.9 5 Sur 12 Sur 0 -- -- 90
2019-07-26 04:00:00 21.2 4 Sur 17 Sur 0 -- -- 87
2019-07-26 03:00:00 21.5 6 Sur 15 Sur 0 -- -- 87
2019-07-26 02:00:00 21.9 9 Sur 23 Sur 0 -- -- 83
2019-07-26 01:00:00 22.6 13 Sur 22 Sudoeste 0 -- -- 80
2019-07-26 00:00:00 23.4 7 Sur 16 Sudoeste 0 -- -- 76